Time;durP1;ratioP1;P1;durP2;ratioP2;P2;SDS_P1;SDS_P2;PMS_P1;PMS_P2;Temp;Humidity;BMP_temperature;BMP_pressure;BME280_temperature;BME280_humidity;BME280_pressure;Samples;Min_cycle;Max_cycle;Signal;HPM_P1;HPM_P2
2023/11/28 00:01:16;;;;;;;2.50;1.20;;;17.40;54.20;;;;;;6158006;23;20175;-84
2023/11/28 00:03:43;;;;;;;2.00;1.27;;;17.40;54.40;;;;;;6131454;23;20182;-85
2023/11/28 00:06:15;;;;;;;4.65;1.30;;;17.40;54.30;;;;;;6131532;23;20208;-85
2023/11/28 00:08:46;;;;;;;3.80;0.93;;;17.40;54.20;;;;;;6131567;23;20147;-83
2023/11/28 00:11:20;;;;;;;2.80;1.05;;;17.40;54.50;;;;;;6081947;23;20158;-87
2023/11/28 00:13:46;;;;;;;3.67;1.02;;;17.40;54.40;;;;;;6131826;23;20127;-85
2023/11/28 00:16:13;;;;;;;4.75;1.58;;;17.40;54.50;;;;;;6106165;23;20152;-87
2023/11/28 00:18:39;;;;;;;1.65;1.00;;;17.40;54.20;;;;;;6130392;23;20155;-86
2023/11/28 00:21:06;;;;;;;2.17;1.38;;;17.40;54.20;;;;;;6155537;23;20128;-83
2023/11/28 00:23:31;;;;;;;2.03;0.95;;;17.40;54.10;;;;;;6106717;23;20595;-86
2023/11/28 00:25:57;;;;;;;2.45;1.20;;;17.40;54.30;;;;;;6130763;23;20132;-85
2023/11/28 00:28:25;;;;;;;3.08;1.20;;;17.40;54.20;;;;;;6130869;23;20607;-86
2023/11/28 00:30:52;;;;;;;2.45;1.00;;;17.40;54.40;;;;;;6107245;23;20287;-85
2023/11/28 00:33:18;;;;;;;2.13;1.08;;;17.30;54.90;;;;;;6131393;23;20135;-84
2023/11/28 00:35:43;;;;;;;2.58;1.08;;;17.30;54.20;;;;;;6106923;23;20171;-87
2023/11/28 00:38:09;;;;;;;2.88;1.33;;;17.30;54.40;;;;;;6107466;23;20135;-85
2023/11/28 00:40:35;;;;;;;1.65;1.02;;;17.30;54.20;;;;;;6131407;23;20198;-86
2023/11/28 00:43:01;;;;;;;3.88;1.20;;;17.30;54.30;;;;;;6131354;23;20507;-86
2023/11/28 00:45:27;;;;;;;2.30;1.20;;;17.30;54.30;;;;;;6131044;23;20470;-84
2023/11/28 00:50:19;;;;;;;2.97;1.02;;;17.30;54.20;;;;;;6166993;23;20525;-84
2023/11/28 00:52:45;;;;;;;5.07;1.20;;;17.30;54.30;;;;;;6160475;23;20131;-84
2023/11/28 00:55:32;;;;;;;1.90;1.17;;;17.30;54.30;;;;;;6112591;23;20166;-84
2023/11/28 00:57:58;;;;;;;1.33;0.90;;;17.30;54.40;;;;;;6157551;23;20222;-85
2023/11/28 01:00:24;;;;;;;1.63;1.00;;;17.30;54.30;;;;;;6132000;23;20471;-84
2023/11/28 01:02:49;;;;;;;2.45;1.20;;;17.30;54.30;;;;;;6107424;23;20186;-86
2023/11/28 01:05:15;;;;;;;2.05;1.20;;;17.30;54.50;;;;;;6130333;23;20186;-83
2023/11/28 01:07:41;;;;;;;4.97;1.05;;;17.20;54.40;;;;;;6129879;23;20135;-85
2023/11/28 01:10:08;;;;;;;2.63;1.17;;;17.30;54.10;;;;;;6105115;23;20186;-83
2023/11/28 01:12:34;;;;;;;2.53;1.45;;;17.30;54.40;;;;;;6106574;23;20155;-85
2023/11/28 01:15:04;;;;;;;1.70;1.17;;;17.30;54.20;;;;;;6129780;23;20132;-83
2023/11/28 01:17:30;;;;;;;3.10;1.20;;;17.30;54.30;;;;;;6131133;23;20139;-84
2023/11/28 01:19:55;;;;;;;2.42;1.00;;;17.20;54.20;;;;;;6132375;23;20154;-85
2023/11/28 01:24:47;;;;;;;2.60;1.02;;;17.30;54.20;;;;;;6122340;23;20215;-85
2023/11/28 01:27:12;;;;;;;2.17;1.30;;;17.30;54.30;;;;;;6127778;23;20473;-83
2023/11/28 01:29:38;;;;;;;2.63;1.13;;;17.30;54.20;;;;;;6125793;23;20148;-85
2023/11/28 01:32:04;;;;;;;3.03;1.10;;;17.30;54.30;;;;;;6101292;23;20215;-86
2023/11/28 01:34:30;;;;;;;1.20;1.10;;;17.20;54.30;;;;;;6125958;23;20186;-84
2023/11/28 01:36:56;;;;;;;1.60;1.10;;;17.20;54.20;;;;;;6101931;23;20211;-84
2023/11/28 01:39:22;;;;;;;2.92;1.00;;;17.20;54.40;;;;;;6101704;23;20179;-86
2023/11/28 01:41:48;;;;;;;2.92;1.13;;;17.20;54.30;;;;;;6128721;23;20563;-86
2023/11/28 01:44:14;;;;;;;1.98;1.00;;;17.20;54.20;;;;;;6102423;23;20183;-84
2023/11/28 01:46:40;;;;;;;1.75;1.00;;;17.20;54.20;;;;;;6126118;23;20136;-83
2023/11/28 01:49:07;;;;;;;1.42;0.93;;;17.20;54.10;;;;;;6100954;23;20171;-84
2023/11/28 01:51:34;;;;;;;2.50;1.08;;;17.30;54.30;;;;;;6125303;23;20599;-83
2023/11/28 01:54:02;;;;;;;2.38;1.20;;;17.20;54.10;;;;;;6100968;23;20183;-84
2023/11/28 01:56:31;;;;;;;1.52;1.08;;;17.20;54.00;;;;;;6100235;23;20133;-84
2023/11/28 01:58:57;;;;;;;3.03;1.00;;;17.20;54.20;;;;;;6126728;23;20143;-86
2023/11/28 02:01:23;;;;;;;2.20;0.90;;;17.20;54.20;;;;;;6100056;23;20254;-84
2023/11/28 02:03:49;;;;;;;2.78;1.30;;;17.20;54.20;;;;;;6100778;23;20172;-84
2023/11/28 02:06:15;;;;;;;1.35;0.95;;;17.20;54.20;;;;;;6101962;23;20619;-85
2023/11/28 02:08:42;;;;;;;1.27;1.10;;;17.20;54.10;;;;;;6126533;23;20143;-85
2023/11/28 02:11:08;;;;;;;2.00;1.08;;;17.20;54.20;;;;;;6126557;23;20132;-85
2023/11/28 02:13:34;;;;;;;3.05;1.42;;;17.10;54.20;;;;;;6127311;23;20139;-83
2023/11/28 02:16:12;;;;;;;2.72;1.17;;;17.20;54.00;;;;;;6100931;23;20128;-83
2023/11/28 02:18:38;;;;;;;1.85;1.10;;;17.20;54.40;;;;;;6077545;23;20479;-83
2023/11/28 02:21:05;;;;;;;1.77;1.17;;;17.20;54.10;;;;;;6054235;23;20140;-84
2023/11/28 02:23:31;;;;;;;2.25;1.17;;;17.20;54.00;;;;;;6126653;23;20132;-85
2023/11/28 02:25:59;;;;;;;1.33;1.13;;;17.20;54.00;;;;;;6077554;23;20210;-85
2023/11/28 02:28:29;;;;;;;2.45;1.00;;;17.20;54.20;;;;;;6127441;23;20234;-83
2023/11/28 02:30:57;;;;;;;2.70;1.20;;;17.20;54.20;;;;;;6076069;23;20163;-84
2023/11/28 02:33:23;;;;;;;2.75;1.10;;;17.20;54.10;;;;;;6127801;23;20143;-84
2023/11/28 02:35:49;;;;;;;1.77;1.20;;;17.10;54.00;;;;;;6125487;23;20239;-85
2023/11/28 02:38:15;;;;;;;1.95;1.10;;;17.20;54.20;;;;;;6101376;23;20167;-84
2023/11/28 02:40:41;;;;;;;2.08;0.93;;;17.20;54.20;;;;;;6101126;23;20198;-85
2023/11/28 02:43:07;;;;;;;1.55;1.20;;;17.10;54.10;;;;;;6101287;23;20191;-83
2023/11/28 02:45:33;;;;;;;1.80;1.00;;;17.20;54.20;;;;;;6100921;23;20584;-85
2023/11/28 02:48:01;;;;;;;2.25;1.08;;;17.10;53.90;;;;;;6101588;23;20180;-84
2023/11/28 02:50:27;;;;;;;1.00;0.90;;;17.20;53.90;;;;;;6125657;23;20128;-87
2023/11/28 02:52:57;;;;;;;3.47;1.15;;;17.20;54.00;;;;;;6126017;23;20143;-87
2023/11/28 02:55:22;;;;;;;2.53;1.08;;;17.20;54.00;;;;;;6051249;23;20611;-86
2023/11/28 02:57:48;;;;;;;2.22;0.98;;;17.20;54.00;;;;;;6125588;23;20139;-83
2023/11/28 03:00:15;;;;;;;1.80;1.08;;;17.20;54.10;;;;;;6101675;23;20476;-84
2023/11/28 03:02:41;;;;;;;2.67;0.90;;;17.20;53.90;;;;;;6100645;23;20183;-86
2023/11/28 03:05:07;;;;;;;1.38;1.10;;;17.20;54.00;;;;;;6125600;23;20144;-85
2023/11/28 03:07:36;;;;;;;1.17;1.00;;;17.20;54.00;;;;;;6100575;23;20567;-85
2023/11/28 03:10:03;;;;;;;1.45;0.90;;;17.20;54.00;;;;;;6076160;23;20160;-84
2023/11/28 03:12:28;;;;;;;1.30;1.05;;;17.10;53.90;;;;;;6100968;23;20159;-85
2023/11/28 03:14:54;;;;;;;1.52;1.20;;;17.10;54.00;;;;;;6124752;23;20136;-86
2023/11/28 03:17:20;;;;;;;1.23;1.00;;;17.20;53.90;;;;;;6124745;23;20290;-86
2023/11/28 03:19:46;;;;;;;2.15;1.00;;;17.10;53.70;;;;;;6099568;23;20179;-85
2023/11/28 03:22:13;;;;;;;1.67;1.20;;;17.20;53.80;;;;;;6123869;23;20168;-85
2023/11/28 03:24:41;;;;;;;1.95;1.10;;;17.10;53.80;;;;;;6122782;23;20152;-86
2023/11/28 03:27:07;;;;;;;1.17;1.08;;;17.10;53.90;;;;;;6124397;23;20628;-87
2023/11/28 03:29:38;;;;;;;2.38;1.23;;;17.10;53.70;;;;;;6052759;23;20190;-85
2023/11/28 03:34:34;;;;;;;3.15;1.10;;;17.10;53.90;;;;;;6128087;23;20179;-84
2023/11/28 03:37:00;;;;;;;2.03;0.98;;;17.10;53.90;;;;;;6101547;23;20136;-85
2023/11/28 03:39:26;;;;;;;2.03;1.00;;;17.10;53.80;;;;;;6078736;23;20152;-86
2023/11/28 03:41:57;;;;;;;1.48;1.17;;;17.10;53.90;;;;;;6102360;23;20179;-84
2023/11/28 03:44:25;;;;;;;2.03;1.10;;;17.10;53.90;;;;;;6005456;23;20611;-84
2023/11/28 03:46:51;;;;;;;1.33;0.90;;;17.10;53.90;;;;;;6103114;23;20195;-83
2023/11/28 03:49:17;;;;;;;1.67;1.00;;;17.10;53.80;;;;;;6077615;23;20161;-85
2023/11/28 03:51:43;;;;;;;1.77;1.02;;;17.10;53.80;;;;;;6102206;23;20156;-85
2023/11/28 03:54:09;;;;;;;1.25;1.13;;;17.00;53.60;;;;;;6076530;23;20171;-84
2023/11/28 03:56:35;;;;;;;1.25;1.10;;;17.10;53.60;;;;;;6078100;23;20584;-85
2023/11/28 03:59:01;;;;;;;1.92;1.25;;;17.10;53.90;;;;;;6101974;23;20203;-83
2023/11/28 04:01:27;;;;;;;1.45;1.10;;;17.10;53.80;;;;;;6101942;23;20183;-83
2023/11/28 04:03:53;;;;;;;2.30;1.02;;;17.10;53.90;;;;;;6101789;23;20133;-83
2023/11/28 04:06:20;;;;;;;2.80;1.00;;;17.10;53.90;;;;;;6077642;23;20232;-86
2023/11/28 04:08:46;;;;;;;1.30;1.05;;;17.10;53.90;;;;;;6100384;23;20154;-85
2023/11/28 04:11:16;;;;;;;1.00;0.90;;;17.10;54.50;;;;;;6078171;23;20155;-84
2023/11/28 04:13:42;;;;;;;2.65;1.30;;;17.10;53.90;;;;;;6076225;23;20603;-85
2023/11/28 04:18:36;;;;;;;1.55;1.00;;;17.10;53.80;;;;;;6155840;23;20215;-83
2023/11/28 04:21:06;;;;;;;1.95;1.23;;;17.00;53.70;;;;;;6107031;23;20151;-83
2023/11/28 04:23:32;;;;;;;1.98;1.10;;;17.00;53.80;;;;;;6154886;23;20231;-85
2023/11/28 04:25:58;;;;;;;1.83;1.30;;;17.00;53.60;;;;;;6131094;23;20190;-86
2023/11/28 04:28:24;;;;;;;1.10;1.00;;;17.00;53.80;;;;;;6131111;23;20143;-86
2023/11/28 04:30:59;;;;;;;1.83;1.08;;;17.00;53.70;;;;;;6132202;23;20183;-86
2023/11/28 04:33:29;;;;;;;2.22;0.93;;;17.00;53.70;;;;;;6133827;23;20162;-86
2023/11/28 04:35:55;;;;;;;1.23;0.90;;;17.00;53.70;;;;;;6084446;23;20174;-86
2023/11/28 04:38:24;;;;;;;1.20;0.80;;;17.00;53.70;;;;;;6109387;23;20483;-85
2023/11/28 04:40:55;;;;;;;1.23;1.10;;;17.00;53.70;;;;;;6109388;23;20230;-85
2023/11/28 04:43:20;;;;;;;1.98;1.08;;;17.10;53.60;;;;;;6058490;23;20187;-86
2023/11/28 04:45:46;;;;;;;1.80;1.02;;;17.00;53.70;;;;;;6106616;23;20210;-84
2023/11/28 04:48:12;;;;;;;1.45;1.02;;;17.00;53.60;;;;;;6107017;23;20155;-85
2023/11/28 04:50:38;;;;;;;1.65;1.10;;;17.10;53.60;;;;;;6105735;23;20147;-85
2023/11/28 04:53:04;;;;;;;2.55;1.13;;;17.10;53.40;;;;;;6132278;23;20215;-86
2023/11/28 04:55:31;;;;;;;1.30;1.00;;;17.10;53.60;;;;;;6130691;23;20144;-84
2023/11/28 04:57:57;;;;;;;1.90;1.00;;;17.00;53.50;;;;;;6131117;23;20242;-85
2023/11/28 05:00:23;;;;;;;1.42;1.20;;;17.00;53.50;;;;;;6129683;23;20159;-83
2023/11/28 05:02:49;;;;;;;1.90;1.50;;;17.00;53.30;;;;;;6106374;23;20237;-85
2023/11/28 05:05:14;;;;;;;1.73;0.93;;;17.00;53.50;;;;;;6104639;23;20472;-84
2023/11/28 05:07:40;;;;;;;1.23;0.90;;;17.00;53.40;;;;;;6106040;23;20147;-86
2023/11/28 05:10:08;;;;;;;1.38;1.05;;;17.10;53.50;;;;;;6130348;23;20576;-85
2023/11/28 05:14:59;;;;;;;1.55;1.10;;;17.10;53.50;;;;;;6124305;23;20286;-83
2023/11/28 05:17:25;;;;;;;1.45;1.13;;;17.00;53.30;;;;;;6077888;23;20627;-84
2023/11/28 05:19:51;;;;;;;1.42;1.02;;;17.10;53.60;;;;;;6053114;23;20469;-85
2023/11/28 05:22:16;;;;;;;2.40;1.02;;;17.00;53.30;;;;;;6077499;23;20507;-85
2023/11/28 05:24:42;;;;;;;2.63;1.17;;;17.00;53.50;;;;;;6099643;23;20158;-85
2023/11/28 05:27:08;;;;;;;1.27;1.00;;;17.00;53.40;;;;;;6076846;23;20520;-84
2023/11/28 05:29:34;;;;;;;1.58;1.10;;;17.10;53.60;;;;;;6100827;23;20564;-86
2023/11/28 05:31:59;;;;;;;1.13;1.00;;;17.10;53.50;;;;;;6100380;23;20619;-83
2023/11/28 05:34:26;;;;;;;3.38;0.90;;;17.00;53.30;;;;;;6076640;23;20183;-85
2023/11/28 05:36:51;;;;;;;1.50;1.10;;;17.00;53.50;;;;;;6126896;23;20128;-85
2023/11/28 05:39:17;;;;;;;2.50;1.10;;;17.00;53.40;;;;;;6100981;23;20143;-85
2023/11/28 05:41:43;;;;;;;2.28;1.20;;;17.00;53.40;;;;;;6076878;23;20496;-84
2023/11/28 05:44:13;;;;;;;1.15;1.02;;;17.00;53.40;;;;;;6076924;23;20157;-83
2023/11/28 05:46:39;;;;;;;1.38;1.00;;;17.10;53.40;;;;;;6052298;23;20159;-85
2023/11/28 05:49:05;;;;;;;1.42;1.05;;;17.00;53.30;;;;;;6127552;23;20159;-84
2023/11/28 05:53:57;;;;;;;1.92;1.08;;;17.00;53.40;;;;;;6153229;23;20294;-85
2023/11/28 05:56:22;;;;;;;1.60;0.82;;;17.00;53.60;;;;;;6104410;23;20158;-85
2023/11/28 05:58:48;;;;;;;1.42;1.13;;;16.90;53.30;;;;;;6130824;23;20147;-86
2023/11/28 06:03:39;;;;;;;1.20;1.00;;;17.00;53.40;;;;;;6123312;23;20591;-85
2023/11/28 06:06:06;;;;;;;2.33;1.05;;;17.00;53.50;;;;;;6099937;23;20203;-85
2023/11/28 06:08:32;;;;;;;2.20;1.10;;;16.90;53.40;;;;;;6101225;23;20193;-84
2023/11/28 06:11:00;;;;;;;2.47;1.17;;;17.00;53.40;;;;;;6076898;23;20183;-85
2023/11/28 06:15:58;;;;;;;1.98;1.27;;;16.90;53.50;;;;;;6155826;23;20546;-85
2023/11/28 06:18:29;;;;;;;2.65;1.20;;;17.00;53.30;;;;;;6081638;23;20177;-85
2023/11/28 06:20:55;;;;;;;1.83;0.98;;;17.00;53.30;;;;;;6057055;23;20582;-86
2023/11/28 06:23:21;;;;;;;1.40;1.10;;;17.00;53.40;;;;;;6130156;23;20186;-85
2023/11/28 06:25:46;;;;;;;2.75;1.20;;;17.00;53.40;;;;;;6104910;23;20571;-84
2023/11/28 06:28:12;;;;;;;1.35;1.10;;;17.00;53.50;;;;;;6128196;23;20579;-84
2023/11/28 06:30:38;;;;;;;1.70;1.10;;;16.90;53.40;;;;;;6079519;23;20627;-86
2023/11/28 06:33:08;;;;;;;1.30;1.10;;;16.80;53.20;;;;;;6099380;23;20211;-82
2023/11/28 06:35:34;;;;;;;1.30;1.10;;;17.00;53.40;;;;;;6074340;23;20486;-86
2023/11/28 06:38:01;;;;;;;1.92;0.90;;;17.00;53.20;;;;;;6054914;23;20179;-84
2023/11/28 06:40:27;;;;;;;1.80;1.10;;;16.90;53.30;;;;;;6101946;23;20139;-85
2023/11/28 06:42:53;;;;;;;4.35;1.20;;;16.90;53.30;;;;;;6102441;23;20168;-85
2023/11/28 06:45:19;;;;;;;1.23;1.08;;;16.90;53.40;;;;;;6129173;23;20164;-84
2023/11/28 06:47:45;;;;;;;1.02;0.90;;;16.90;53.50;;;;;;6079031;23;20221;-86
2023/11/28 06:50:11;;;;;;;2.40;1.00;;;16.90;53.40;;;;;;6079873;23;20579;-85
2023/11/28 06:52:38;;;;;;;1.50;1.10;;;16.90;53.40;;;;;;6103341;23;20211;-84
2023/11/28 06:55:06;;;;;;;1.38;1.27;;;16.90;53.30;;;;;;6079724;23;20140;-84
2023/11/28 06:57:33;;;;;;;1.58;1.00;;;16.90;53.40;;;;;;6056346;23;20460;-83
2023/11/28 06:59:59;;;;;;;1.38;1.00;;;17.00;53.40;;;;;;6078298;23;20156;-84
2023/11/28 07:02:25;;;;;;;3.55;1.35;;;16.90;53.40;;;;;;6128367;23;20229;-82
2023/11/28 07:04:51;;;;;;;1.98;1.00;;;16.90;53.50;;;;;;6133656;23;20148;-86
2023/11/28 07:07:16;;;;;;;1.35;1.00;;;16.90;53.30;;;;;;6083701;23;20571;-84
2023/11/28 07:09:47;;;;;;;1.85;1.23;;;16.80;53.40;;;;;;6132371;23;20450;-82
2023/11/28 07:12:12;;;;;;;1.70;1.13;;;16.80;53.30;;;;;;6133284;23;20593;-83
2023/11/28 07:14:38;;;;;;;1.48;1.00;;;16.90;52.90;;;;;;6112262;23;20203;-83
2023/11/28 07:17:04;;;;;;;1.50;1.10;;;17.00;53.20;;;;;;6132971;23;20131;-85
2023/11/28 07:19:30;;;;;;;2.75;1.20;;;17.00;52.80;;;;;;6133422;23;20214;-83
2023/11/28 07:21:55;;;;;;;3.22;1.10;;;17.00;53.10;;;;;;6108878;23;20185;-83
2023/11/28 07:24:21;;;;;;;2.20;0.95;;;17.00;52.90;;;;;;6159710;23;20540;-84
2023/11/28 07:26:47;;;;;;;0.85;0.85;;;17.00;53.10;;;;;;6132754;23;20138;-85
2023/11/28 07:29:13;;;;;;;1.50;1.02;;;17.00;52.90;;;;;;6108092;23;20762;-83
2023/11/28 07:31:40;;;;;;;1.27;0.82;;;17.00;52.90;;;;;;6156856;23;20215;-83
2023/11/28 07:34:06;;;;;;;1.20;1.00;;;17.10;52.30;;;;;;6133178;23;20132;-83
2023/11/28 07:36:32;;;;;;;1.42;0.82;;;17.10;52.60;;;;;;6133948;23;20143;-82
2023/11/28 07:38:58;;;;;;;1.25;1.10;;;17.10;53.10;;;;;;6132779;23;20132;-85
2023/11/28 07:41:24;;;;;;;2.38;1.10;;;17.00;52.70;;;;;;6160333;23;20630;-83
2023/11/28 07:43:50;;;;;;;2.28;1.02;;;17.10;52.80;;;;;;6157204;23;20579;-84
2023/11/28 07:46:16;;;;;;;1.08;0.90;;;17.00;52.60;;;;;;6136967;23;20131;-83
2023/11/28 07:48:43;;;;;;;1.30;1.00;;;17.00;52.40;;;;;;6135431;23;20179;-84
2023/11/28 07:51:10;;;;;;;2.03;1.10;;;17.10;52.40;;;;;;6159077;23;20147;-84
2023/11/28 07:53:36;;;;;;;1.20;0.93;;;17.10;52.50;;;;;;6109996;23;20147;-86
2023/11/28 07:56:03;;;;;;;1.70;0.95;;;17.10;52.60;;;;;;6134239;23;20630;-85
2023/11/28 07:58:30;;;;;;;0.80;0.80;;;17.10;52.40;;;;;;6135244;23;20135;-84
2023/11/28 08:00:56;;;;;;;1.65;1.10;;;17.10;52.50;;;;;;6135499;23;20132;-85
2023/11/28 08:03:23;;;;;;;1.17;1.08;;;17.10;52.30;;;;;;6112130;23;20590;-85
2023/11/28 08:05:50;;;;;;;2.38;1.00;;;17.10;52.80;;;;;;6136059;23;20227;-85
2023/11/28 08:08:16;;;;;;;1.30;1.08;;;17.10;52.80;;;;;;6113152;23;20128;-86
2023/11/28 08:10:44;;;;;;;1.60;1.20;;;17.10;52.90;;;;;;6137250;23;20140;-85
2023/11/28 08:13:15;;;;;;;1.35;0.93;;;17.10;52.90;;;;;;6112858;23;20142;-84
2023/11/28 08:15:42;;;;;;;0.90;0.80;;;17.10;52.80;;;;;;6115686;23;20186;-85
2023/11/28 08:18:08;;;;;;;1.02;0.80;;;17.10;52.00;;;;;;6164440;23;20159;-86
2023/11/28 08:20:34;;;;;;;1.67;0.80;;;17.10;52.50;;;;;;6139677;23;20147;-86
2023/11/28 08:23:00;;;;;;;1.77;1.10;;;17.10;52.50;;;;;;6136533;23;20559;-84
2023/11/28 08:25:26;;;;;;;1.45;0.88;;;17.10;52.70;;;;;;6114105;23;20148;-86
2023/11/28 08:27:52;;;;;;;1.10;1.00;;;17.20;52.10;;;;;;6141195;23;20155;-86
2023/11/28 08:30:18;;;;;;;1.48;1.00;;;17.20;52.30;;;;;;6138629;23;20142;-85
2023/11/28 08:32:44;;;;;;;1.00;0.85;;;17.10;52.50;;;;;;6114655;23;20132;-84
2023/11/28 08:35:12;;;;;;;1.38;1.00;;;17.10;52.10;;;;;;6137485;23;20143;-84
2023/11/28 08:37:38;;;;;;;1.30;0.90;;;17.10;52.40;;;;;;6137903;23;20151;-85
2023/11/28 08:40:05;;;;;;;0.90;0.90;;;17.20;52.80;;;;;;6139589;23;20155;-84
2023/11/28 08:42:33;;;;;;;0.88;0.80;;;17.20;52.30;;;;;;6165222;23;20198;-85
2023/11/28 08:44:59;;;;;;;1.20;1.10;;;17.20;52.30;;;;;;6112771;23;20146;-87
2023/11/28 08:47:25;;;;;;;1.35;0.82;;;17.30;51.30;;;;;;6111403;23;20195;-83
2023/11/28 08:49:51;;;;;;;1.23;0.80;;;17.20;51.20;;;;;;6137714;23;20227;-84
2023/11/28 08:52:17;;;;;;;1.88;0.90;;;17.30;51.60;;;;;;6136264;23;20284;-83
2023/11/28 08:54:44;;;;;;;1.38;1.00;;;17.30;51.40;;;;;;6134912;23;20148;-84
2023/11/28 08:57:13;;;;;;;1.10;0.95;;;17.30;51.00;;;;;;6161719;23;20144;-84
2023/11/28 08:59:39;;;;;;;0.93;0.75;;;17.40;50.70;;;;;;6112887;23;20138;-85
2023/11/28 09:02:05;;;;;;;2.28;0.95;;;17.40;51.60;;;;;;6113298;23;20202;-85
2023/11/28 09:04:34;;;;;;;0.85;0.82;;;17.50;51.70;;;;;;6111376;23;20143;-82
2023/11/28 09:07:00;;;;;;;3.28;1.00;;;17.40;51.60;;;;;;6112695;23;20144;-85
2023/11/28 09:09:26;;;;;;;2.20;0.80;;;17.40;51.90;;;;;;6114827;23;20645;-84
2023/11/28 09:11:52;;;;;;;3.42;0.90;;;17.40;52.80;;;;;;6136976;23;20139;-83
2023/11/28 09:14:18;;;;;;;2.60;0.90;;;17.40;52.10;;;;;;6138869;23;20218;-84
2023/11/28 09:16:48;;;;;;;1.02;0.75;;;17.40;52.20;;;;;;6139525;23;20144;-85
2023/11/28 09:19:14;;;;;;;1.65;1.00;;;17.40;52.40;;;;;;6114202;23;20210;-83
2023/11/28 09:21:40;;;;;;;1.27;0.90;;;17.40;51.30;;;;;;6162351;23;20194;-85
2023/11/28 09:24:08;;;;;;;2.65;0.90;;;17.40;51.80;;;;;;6136956;23;20136;-83
2023/11/28 09:26:34;;;;;;;1.95;0.80;;;17.50;51.40;;;;;;6136419;23;20139;-85
2023/11/28 09:29:02;;;;;;;1.33;0.90;;;17.50;50.70;;;;;;6136052;23;20130;-85
2023/11/28 09:31:28;;;;;;;1.25;0.90;;;17.50;51.60;;;;;;6135984;23;20211;-82
2023/11/28 09:33:55;;;;;;;2.28;1.10;;;17.50;50.70;;;;;;6136507;23;20144;-84
2023/11/28 09:36:21;;;;;;;2.13;0.90;;;17.60;51.20;;;;;;6114449;23;20136;-84
2023/11/28 09:38:51;;;;;;;1.17;0.90;;;17.50;50.50;;;;;;6164041;23;20128;-84
2023/11/28 09:41:24;;;;;;;1.20;0.80;;;17.60;50.50;;;;;;6137764;23;20128;-84
2023/11/28 09:43:51;;;;;;;2.75;0.95;;;17.60;50.70;;;;;;6138350;23;20191;-84
2023/11/28 09:46:16;;;;;;;0.80;0.80;;;17.60;50.50;;;;;;6137979;23;20163;-83
2023/11/28 09:48:42;;;;;;;1.20;1.00;;;17.60;50.90;;;;;;6163421;23;20131;-83
2023/11/28 09:51:08;;;;;;;2.33;1.08;;;17.60;50.00;;;;;;6112598;23;20147;-84
2023/11/28 11:21:54;;;;;;;1.08;0.88;;;17.80;50.80;;;;;;6134560;23;20613;-84
2023/11/28 11:24:26;;;;;;;2.05;0.90;;;17.80;51.20;;;;;;6107970;23;20266;-85
2023/11/28 11:26:54;;;;;;;3.42;0.75;;;17.80;50.50;;;;;;6109078;23;20139;-85
2023/11/28 11:29:40;;;;;;;1.65;0.88;;;17.80;50.80;;;;;;6132414;23;20136;-86
2023/11/28 11:32:10;;;;;;;1.88;0.90;;;17.80;50.80;;;;;;6158042;23;20132;-83
2023/11/28 11:34:41;;;;;;;2.10;0.90;;;17.80;51.60;;;;;;6133976;23;20182;-85
2023/11/28 11:37:16;;;;;;;2.40;1.00;;;17.70;50.80;;;;;;6134526;23;20240;-84
2023/11/28 11:39:44;;;;;;;1.13;0.95;;;17.70;51.00;;;;;;6105282;23;20146;-84
2023/11/28 11:42:16;;;;;;;1.15;0.90;;;17.80;50.60;;;;;;6129648;23;20170;-85
2023/11/28 11:44:47;;;;;;;3.17;0.90;;;17.80;50.60;;;;;;6105806;23;20152;-84
2023/11/28 11:47:16;;;;;;;1.52;1.02;;;17.70;50.50;;;;;;6153706;23;20445;-83
2023/11/28 11:49:43;;;;;;;1.25;0.75;;;17.80;50.80;;;;;;6130413;23;20153;-83
2023/11/28 11:52:09;;;;;;;2.03;0.90;;;17.70;50.50;;;;;;6128260;23;20147;-85
2023/11/28 11:54:34;;;;;;;1.55;0.90;;;17.80;50.10;;;;;;6104949;23;20689;-86
2023/11/28 11:57:00;;;;;;;1.20;1.10;;;17.80;49.90;;;;;;6131642;23;20143;-83
2023/11/28 11:59:27;;;;;;;0.73;0.73;;;17.80;50.10;;;;;;6157645;23;20610;-86
2023/11/28 12:01:53;;;;;;;2.95;1.00;;;17.80;50.50;;;;;;6129900;23;20209;-87
2023/11/28 12:04:20;;;;;;;1.60;0.82;;;17.80;50.60;;;;;;6130539;23;20218;-85
2023/11/28 12:06:45;;;;;;;2.30;0.90;;;17.80;49.40;;;;;;6129706;23;20206;-86
2023/11/28 12:09:11;;;;;;;1.55;1.10;;;17.80;49.70;;;;;;6123463;23;20235;-86
2023/11/28 12:11:37;;;;;;;2.22;1.20;;;17.80;50.60;;;;;;6102461;23;20132;-83
2023/11/28 12:14:05;;;;;;;1.30;0.80;;;17.80;49.60;;;;;;6156102;23;20159;-84
2023/11/28 12:16:31;;;;;;;0.60;0.60;;;17.80;50.80;;;;;;6107889;23;20151;-84
2023/11/28 12:18:57;;;;;;;2.30;0.80;;;17.70;50.30;;;;;;6130156;23;20214;-86
2023/11/28 12:21:23;;;;;;;1.67;0.80;;;17.80;50.30;;;;;;6129766;23;20202;-87
2023/11/28 12:23:49;;;;;;;1.60;0.80;;;17.70;50.60;;;;;;6156606;23;20646;-85
2023/11/28 12:26:15;;;;;;;1.33;0.80;;;17.70;50.00;;;;;;6107151;23;20147;-85
2023/11/28 12:28:41;;;;;;;1.13;0.90;;;17.70;50.50;;;;;;6129772;23;20448;-84
2023/11/28 12:31:07;;;;;;;0.85;0.70;;;17.80;49.90;;;;;;6131057;23;20586;-86
2023/11/28 12:33:36;;;;;;;2.15;1.02;;;17.80;50.70;;;;;;6105703;23;20156;-85
2023/11/28 12:36:02;;;;;;;1.23;0.88;;;17.80;50.30;;;;;;6156135;23;20197;-85
2023/11/28 12:38:28;;;;;;;3.67;0.88;;;17.80;50.40;;;;;;6104789;23;20148;-86
2023/11/28 12:40:56;;;;;;;1.98;0.90;;;17.80;49.80;;;;;;6129586;23;20159;-84
2023/11/28 12:43:22;;;;;;;2.20;1.00;;;17.80;50.10;;;;;;6156420;23;20599;-85
2023/11/28 12:45:51;;;;;;;1.30;0.70;;;17.70;50.80;;;;;;6105783;23;20148;-85
2023/11/28 12:48:17;;;;;;;0.82;0.75;;;17.80;50.90;;;;;;6106066;23;20143;-86
2023/11/28 12:50:43;;;;;;;1.42;0.90;;;17.80;50.70;;;;;;6154445;23;20134;-84
2023/11/28 12:53:18;;;;;;;2.63;0.98;;;17.80;50.60;;;;;;6127974;23;20144;-84
2023/11/28 12:55:45;;;;;;;0.75;0.75;;;17.70;51.20;;;;;;6080892;23;20176;-86
2023/11/28 12:58:11;;;;;;;1.42;0.90;;;17.70;51.10;;;;;;6106015;23;20132;-84
2023/11/28 13:00:37;;;;;;;1.77;0.73;;;17.70;50.80;;;;;;6131144;23;20159;-83
2023/11/28 13:03:03;;;;;;;0.90;0.77;;;17.70;50.50;;;;;;6106194;23;20171;-83
2023/11/28 13:05:29;;;;;;;1.17;0.80;;;17.70;50.80;;;;;;6081909;23;20483;-84
2023/11/28 13:07:55;;;;;;;1.02;0.80;;;17.70;50.50;;;;;;6155091;23;20274;-86
2023/11/28 13:10:21;;;;;;;1.52;0.85;;;17.70;49.60;;;;;;6082339;23;20198;-83
2023/11/28 13:12:49;;;;;;;1.08;0.85;;;17.70;50.10;;;;;;6109839;23;20147;-84
2023/11/28 13:15:17;;;;;;;0.80;0.77;;;17.80;50.00;;;;;;6138093;23;20132;-82
2023/11/28 13:17:43;;;;;;;0.70;0.70;;;17.80;50.10;;;;;;6069152;23;20152;-84
2023/11/28 13:20:11;;;;;;;1.70;0.82;;;17.80;50.40;;;;;;6140092;23;20201;-84
2023/11/28 13:22:37;;;;;;;2.17;1.13;;;17.90;50.30;;;;;;6118651;23;20167;-81
2023/11/28 13:25:05;;;;;;;2.15;0.90;;;17.80;49.80;;;;;;6093227;23;20147;-82
2023/11/28 13:27:35;;;;;;;1.23;0.75;;;17.80;49.40;;;;;;6094257;23;20436;-83
2023/11/28 13:30:07;;;;;;;1.35;1.00;;;17.80;49.80;;;;;;6117790;23;20151;-83
2023/11/28 13:32:33;;;;;;;0.70;0.70;;;17.80;50.10;;;;;;6083836;23;20189;-87
2023/11/28 13:34:59;;;;;;;2.05;0.95;;;17.80;50.30;;;;;;6130481;23;20217;-83
2023/11/28 13:37:27;;;;;;;1.13;0.90;;;17.80;49.30;;;;;;6130035;23;20587;-82
2023/11/28 13:39:54;;;;;;;2.13;0.80;;;17.80;49.80;;;;;;6130089;23;20135;-83
2023/11/28 13:42:21;;;;;;;0.90;0.80;;;17.80;49.80;;;;;;6105264;23;20248;-82
2023/11/28 13:44:46;;;;;;;1.00;0.80;;;17.80;49.60;;;;;;6104410;23;20483;-85
2023/11/28 13:47:13;;;;;;;1.15;0.70;;;17.80;49.00;;;;;;6078141;23;20148;-84
2023/11/28 13:49:39;;;;;;;1.13;0.77;;;17.80;49.10;;;;;;6127550;23;20155;-84
2023/11/28 13:52:05;;;;;;;1.27;0.80;;;17.80;50.10;;;;;;6127365;23;20211;-86
2023/11/28 13:54:33;;;;;;;1.30;0.80;;;17.80;50.10;;;;;;6127834;23;20633;-84
2023/11/28 13:56:58;;;;;;;2.13;0.80;;;17.80;49.80;;;;;;6104970;23;20564;-84
2023/11/28 13:59:29;;;;;;;0.70;0.68;;;17.80;48.70;;;;;;6105336;23;20567;-86
2023/11/28 14:01:54;;;;;;;0.95;0.80;;;17.80;49.60;;;;;;6107110;23;20667;-86
2023/11/28 14:04:20;;;;;;;1.33;0.70;;;17.70;50.10;;;;;;6106391;23;20181;-85
2023/11/28 14:06:46;;;;;;;0.73;0.73;;;17.70;49.30;;;;;;6106272;23;20139;-85
2023/11/28 14:09:14;;;;;;;0.95;0.80;;;17.80;49.10;;;;;;6157215;23;20611;-87
2023/11/28 14:11:39;;;;;;;0.70;0.70;;;17.80;49.20;;;;;;6082343;23;20230;-86
2023/11/28 14:14:05;;;;;;;1.02;0.80;;;17.80;48.80;;;;;;6131235;23;20181;-85
2023/11/28 14:16:32;;;;;;;1.35;0.90;;;17.80;49.00;;;;;;6155993;23;20202;-87
2023/11/28 14:19:01;;;;;;;2.83;0.80;;;17.80;49.00;;;;;;6107616;23;20163;-85
2023/11/28 14:21:28;;;;;;;1.75;1.00;;;17.80;49.10;;;;;;6056587;23;20186;-85
2023/11/28 14:23:56;;;;;;;1.05;0.80;;;17.80;48.30;;;;;;6134107;23;20140;-87
2023/11/28 14:26:22;;;;;;;1.05;0.95;;;17.80;48.80;;;;;;6112932;23;20151;-84
2023/11/28 14:28:49;;;;;;;1.95;0.88;;;17.70;49.90;;;;;;6130290;23;20469;-85
2023/11/28 14:31:15;;;;;;;1.13;0.70;;;17.80;49.90;;;;;;6106246;23;20183;-85
2023/11/28 14:33:40;;;;;;;0.93;0.70;;;17.70;50.70;;;;;;6105719;23;20151;-86